Flight Track Log - Related Links

Times and Time Zones

All times are in EDT time to prevent confusion due to time zone crossing. See the SWA417 flight status page for this flight to view local times or setup timezone preferences in your user account.

Time Position Orientation Groundspeed Altitude Reporting Facility
EDT Latitude Longitude Course Direction KTS MPH feet Rate Location/Type
Wed 03:29:53 PM 36.1011 -115.1547 302° West 144 166 2,900  Level Los Angeles Center
Wed 03:30:47 PM 36.1206 -115.1936 302° West 209 241 4,600 1,976 Climbing Los Angeles Center
Wed 03:31:18 PM 36.1172 -115.2153 259° West 217 250 5,700 2,597 Climbing Los Angeles Center
Wed 03:31:54 PM 36.1028 -115.2817 255° West 265 305 7,500 3,387 Climbing Los Angeles Center
Wed 03:32:20 PM 36.0794 -115.3033 217° Southwest 256 295 9,200 2,455 Climbing Los Angeles Center
Wed 03:33:22 PM 35.9992 -115.3458 203° Southwest 291 335 11,100 1,500 Climbing Los Angeles Center
Wed 03:34:36 PM 35.9086 -115.3983 205° Southwest 329 379 12,600 2,453 Climbing Los Angeles Center
Wed 03:35:39 PM 35.8881 -115.5475 260° West 359 413 16,700 3,408 Climbing Los Angeles Center
Wed 03:36:41 PM 35.8911 -115.6869 272° West 369 425 19,700 2,710 Climbing Los Angeles Center
Wed 03:37:43 PM 35.9444 -115.7978 301° West 383 441 22,300 2,419 Climbing Los Angeles Center
Wed 03:38:45 PM 36.0142 -115.9025 309° West 391 450 24,700 2,177 Climbing Los Angeles Center
Wed 03:39:47 PM 36.0861 -116.0119 309° West 405 466 26,800 2,032 Climbing Los Angeles Center
Wed 03:40:49 PM 36.1597 -116.1236 309° West 413 475 28,900 2,448 Climbing Los Angeles Center
Wed 03:41:52 PM 36.2411 -116.2478 309° West 416 479 31,900 1,488 Climbing Los Angeles Center
Wed 03:42:54 PM 36.3114 -116.3533 310° West 404 465 32,000 48 Climbing Los Angeles Center
Wed 03:43:56 PM 36.3803 -116.4600 309° West 399 459 32,000  Level Los Angeles Center
Wed 03:44:58 PM 36.4508 -116.5678 309° West 402 463 32,000  Level Los Angeles Center
Wed 03:46:00 PM 36.5200 -116.6764 308° West 402 463 32,000  Level Los Angeles Center
Wed 03:47:02 PM 36.6078 -116.7808 316° Northwest 406 467 32,000  Level Los Angeles Center
Wed 03:48:04 PM 36.7031 -116.8511 329° Northwest 399 459 32,000  Level Los Angeles Center
Wed 03:49:06 PM 36.8172 -116.9394 328° Northwest 400 460 32,000  Level Los Angeles Center
Wed 03:50:09 PM 36.9114 -117.0106 329° Northwest 399 459 32,000  Level Los Angeles Center
Wed 03:51:11 PM 37.0064 -117.0836 328° Northwest 400 460 32,000  Level Los Angeles Center
Wed 03:52:21 PM 37.1200 -117.1731 328° Northwest 401 461 32,000  Level Oakland Center
Wed 03:53:23 PM 37.2169 -117.2433 330° Northwest 402 463 32,000  Level Oakland Center
Wed 03:54:24 PM 37.3164 -117.3097 332° Northwest 403 464 32,000  Level Oakland Center
Wed 03:55:26 PM 37.4158 -117.3761 332° Northwest 403 464 32,000  Level Oakland Center
Wed 03:56:27 PM 37.5142 -117.4414 332° Northwest 399 459 32,000  Level Oakland Center
Wed 03:57:29 PM 37.6131 -117.5072 332° Northwest 399 459 32,000  Level Oakland Center
Wed 03:58:30 PM 37.7111 -117.5725 332° Northwest 397 457 32,000  Level Oakland Center
Wed 03:59:31 PM 37.8089 -117.6394 332° Northwest 397 457 32,000  Level Oakland Center
Wed 04:00:33 PM 37.9069 -117.7044 332° Northwest 394 453 32,000  Level Oakland Center
Wed 04:01:34 PM 38.0211 -117.7892 330° Northwest 394 453 32,000  Level Oakland Center
Wed 04:02:36 PM 38.1006 -117.8853 316° Northwest 392 451 32,000  Level Oakland Center
Wed 04:03:37 PM 38.1800 -117.9808 317° Northwest 392 451 32,000  Level Oakland Center
Wed 04:04:38 PM 38.2597 -118.0761 317° Northwest 393 452 32,000 -49 Level Oakland Center
Wed 04:05:40 PM 38.3292 -118.1611 316° Northwest 393 452 31,900 -634 Descending Oakland Center
Wed 04:06:41 PM 38.4247 -118.2778 316° Northwest 397 457 30,700 -1,082 Descending Oakland Center
Wed 04:07:42 PM 38.5050 -118.3750 317° Northwest 397 457 29,700 -1,024 Descending Oakland Center
Wed 04:08:44 PM 38.5836 -118.4725 316° Northwest 393 452 28,600 -829 Descending Oakland Center
Wed 04:09:45 PM 38.6614 -118.5681 316° Northwest 387 445 28,000 -689 Descending Oakland Center
Wed 04:10:46 PM 38.7394 -118.6625 317° Northwest 385 443 27,200 -927 Descending Oakland Center
Wed 04:11:48 PM 38.8158 -118.7581 316° Northwest 382 440 26,100 -1,024 Descending Oakland Center
Wed 04:12:49 PM 38.8919 -118.8528 316° Northwest 381 438 25,100 -984 Descending Oakland Center
Wed 04:13:50 PM 38.9681 -118.9472 316° Northwest 378 435 24,100 -976 Descending Oakland Center
Wed 04:14:52 PM 39.0431 -119.0389 317° Northwest 373 429 23,100 -1,073 Descending Oakland Center
Wed 04:15:53 PM 39.1153 -119.1308 315° West 364 419 21,900 -1,525 Descending Oakland Center
Wed 04:16:54 PM 39.1861 -119.2197 316° Northwest 356 410 20,000 -1,854 Descending Oakland Center
Wed 04:17:56 PM 39.2528 -119.3036 316° Northwest 338 389 18,100 -2,341 Descending Oakland Center
Wed 04:18:57 PM 39.3325 -119.4047 316° Northwest 334 384 15,200 -2,902 Descending Oakland Center
Wed 04:19:58 PM 39.3994 -119.4906 315° West 337 388 12,200 -2,439 Descending Oakland Center
Wed 04:21:00 PM 39.4653 -119.5719 316° Northwest 333 383 10,200 -1,463 Descending Oakland Center
Wed 04:22:01 PM 39.5247 -119.6428 317° Northwest 313 360 9,200 -713 Descending Oakland Center
Wed 04:22:41 PM 39.5667 -119.6833 323° Northwest 213 245 9,000 -947 Descending Northern Cal TRACON
Wed 04:23:36 PM 39.6000 -119.7167 322° Northwest 178 205 7,700 -1,513 Descending Northern Cal TRACON
Wed 04:24:36 PM 39.5833 -119.7667 247° West 170 196 6,100 -1,250 Descending Northern Cal TRACON
Wed 04:25:36 PM 39.5500 -119.7667 180° South 153 176 5,200 -900 Descending Northern Cal TRACON
Wed 04:27:00 PM 39.4991 -119.7681 237° Southwest  Level Estimated
Wed 04:34:00 PM 39.4991 -119.7681 237° Southwest  Level Estimated
Wed 04:35:00 PM 39.4991 -119.7681 237° Southwest  Level Estimated

Login

Don't have an account? Register now (free) for customized features, flight alerts, and more!